Rick Pumphrey — WDF8497 — position and weather

sailwx.info

Track history (hours):
 
Tides and Currents Weather Stations Pressure Air Temp Water Temp Dewpoint Dewpoint Depression Visibility Wind Speed Wind Dir Waves Ship Positions

Rick Pumphrey

Owner: Blessey Enterprises, Inc., Harahan, LA. More information available from US FCC via Universal Licensing System and Coast Guard Vessel Documentation Center.

Last reported at 2018-Jan-21 03:00 UTC. Time now 2018-Jan-21 03:08 UTC.
Position N 29°36' W 095°01'.

; draft 2.4 m.

Type: Tug. MMSI: 367495480.

Date/timePositionNaut miles runAvg speedWind from/ knotsBaromVisibWave heightAir tempDewpointWater temp
2018-Jan-21 03:00N 29°36' W 095°01'0 0.0
2018-Jan-21 02:30N 29°36' W 095°01'0 0.0
2018-Jan-21 02:00N 29°36' W 095°01'0 0.0
2018-Jan-21 01:30N 29°36' W 095°01'0 0.0
2018-Jan-21 01:00N 29°36' W 095°01'0 0.0
2018-Jan-21 00:30N 29°36' W 095°01'0 0.0
2018-Jan-21 00:00N 29°36' W 095°01'0 0.0
2018-Jan-20 23:30N 29°36' W 095°01'0 0.0
2018-Jan-20 22:59N 29°36' W 095°01'0 0.0
2018-Jan-20 22:30N 29°36' W 095°01'0 0.0
2018-Jan-20 22:00N 29°36' W 095°01'0 0.0
2018-Jan-20 21:30N 29°36' W 095°01'0 0.0
2018-Jan-20 20:59N 29°36' W 095°01'0 0.0
2018-Jan-20 20:30N 29°36' W 095°01'0 0.1
2018-Jan-20 20:00N 29°36' W 095°01'0 0.5
2018-Jan-20 19:30N 29°37' W 095°01'2 4.3
2018-Jan-20 19:00N 29°37' W 094°59'3 5.1
2018-Jan-20 18:30N 29°39' W 094°58'4 7.5
2018-Jan-20 17:59N 29°42' W 095°01'2 0.1
2018-Jan-19 14:13N 29°44' W 095°03'4 0.2
2018-Jan-18 15:55N 29°42' W 094°60'3 6.2
2018-Jan-18 15:30N 29°39' W 094°58'3 5.1
2018-Jan-18 15:00N 29°37' W 094°58'3 5.5
2018-Jan-18 14:31N 29°37' W 095°01'0 0.2
2018-Jan-18 14:00N 29°37' W 095°02'0 0.0
2018-Jan-18 13:30N 29°37' W 095°02'0 0.0
2018-Jan-18 13:00N 29°37' W 095°02'0 0.0
2018-Jan-18 12:30N 29°37' W 095°02'0 0.0
2018-Jan-18 12:00N 29°37' W 095°01'0 0.0
2018-Jan-18 11:30N 29°37' W 095°02'0 0.0
2018-Jan-18 11:00N 29°37' W 095°02'0 0.0
2018-Jan-18 10:30N 29°37' W 095°02'0 0.0
2018-Jan-18 10:00N 29°37' W 095°02'0 0.0
2018-Jan-18 09:30N 29°37' W 095°02'0 0.0
2018-Jan-18 09:00N 29°37' W 095°02'0 0.0
2018-Jan-18 08:30N 29°37' W 095°02'0 0.0
2018-Jan-18 08:00N 29°37' W 095°02'0 0.0
2018-Jan-18 07:30N 29°37' W 095°02'0 0.0
2018-Jan-18 07:00N 29°37' W 095°02'0 0.0
2018-Jan-18 06:30N 29°37' W 095°02'0 0.0
2018-Jan-18 06:00N 29°37' W 095°01'0 0.0
2018-Jan-18 05:30N 29°37' W 095°02'0 0.0
2018-Jan-18 05:00N 29°37' W 095°01'0 0.0
2018-Jan-18 04:29N 29°37' W 095°01'0 0.0
2018-Jan-18 04:00N 29°37' W 095°02'2 3.4
2018-Jan-18 03:30N 29°37' W 094°60'2 4.5
2018-Jan-18 03:00N 29°39' W 094°58'4 7.2
2018-Jan-18 02:30N 29°42' W 095°00'3 6.1
2018-Jan-18 01:59N 29°44' W 095°03'  
2018-Jan-12 15:00N 29°37' W 094°58'3 5.8
2018-Jan-12 14:30N 29°37' W 095°01'0 0.0
2018-Jan-12 14:00N 29°37' W 095°01'0 0.0
2018-Jan-12 13:30N 29°37' W 095°01'0 0.0
2018-Jan-12 13:00N 29°37' W 095°01'0 0.0
2018-Jan-12 12:30N 29°37' W 095°01'0 0.0
2018-Jan-12 12:00N 29°37' W 095°01'0 0.0
2018-Jan-12 11:30N 29°37' W 095°01'0 0.0
2018-Jan-12 10:58N 29°37' W 095°01'0 0.0
2018-Jan-12 10:30N 29°37' W 095°01'0 0.0
2018-Jan-12 10:00N 29°37' W 095°01'0 0.0
2018-Jan-12 09:27N 29°37' W 095°01'0 0.0
2018-Jan-12 09:00N 29°37' W 095°01'0 0.0
2018-Jan-12 08:26N 29°37' W 095°01'0 0.0
2018-Jan-12 08:00N 29°37' W 095°01'0 0.0
2018-Jan-12 07:29N 29°37' W 095°01'0 0.0
2018-Jan-12 07:00N 29°37' W 095°01'0 0.0
2018-Jan-12 06:30N 29°37' W 095°01'0 0.0
2018-Jan-12 06:00N 29°37' W 095°01'0 0.0
2018-Jan-12 05:30N 29°37' W 095°01'0 0.0
2018-Jan-12 04:58N 29°37' W 095°01'0 0.0
2018-Jan-12 04:30N 29°37' W 095°01'0 0.0
2018-Jan-12 04:00N 29°37' W 095°01'0 0.0
2018-Jan-12 03:25N 29°37' W 095°01'0 0.0
2018-Jan-12 02:57N 29°37' W 095°01'0 0.0
2018-Jan-12 02:27N 29°37' W 095°01'0 0.0
2018-Jan-12 01:58N 29°37' W 095°01'0 0.0
2018-Jan-12 01:29N 29°37' W 095°01'0 0.0
2018-Jan-12 00:59N 29°37' W 095°01'0 0.0
2018-Jan-12 00:30N 29°37' W 095°01'0 0.0
2018-Jan-12 00:00N 29°37' W 095°01'0 0.0
2018-Jan-11 23:28N 29°37' W 095°01'0 0.0
2018-Jan-11 23:00N 29°37' W 095°01'0 0.0
2018-Jan-11 22:30N 29°37' W 095°01'0 0.0
2018-Jan-11 22:00N 29°37' W 095°01'0 0.0
2018-Jan-11 21:30N 29°37' W 095°01'2 3.3
2018-Jan-11 21:00N 29°37' W 094°60'2 4.3
2018-Jan-11 20:30N 29°39' W 094°58'4 7.2
2018-Jan-11 20:00N 29°42' W 094°60'3 6.6
2018-Jan-11 19:30N 29°44' W 095°03'2 0.2
2018-Jan-11 10:37N 29°42' W 095°01'2 6.8
2018-Jan-11 10:15N 29°41' W 094°59'2 7.0
2018-Jan-11 10:00N 29°39' W 094°58'3 5.1
2018-Jan-11 09:30N 29°37' W 094°59'2 3.7
2018-Jan-11 09:00N 29°37' W 095°02'0 0.0
2018-Jan-11 08:30N 29°37' W 095°02'0 0.0
2018-Jan-11 08:00N 29°37' W 095°02'0 0.0
2018-Jan-11 07:30N 29°37' W 095°02'0 0.0
2018-Jan-11 07:00N 29°37' W 095°02'0 0.0
2018-Jan-11 06:30N 29°37' W 095°02'0 0.0
2018-Jan-11 06:00N 29°37' W 095°01'0 0.0
2018-Jan-11 05:30N 29°37' W 095°01'0 0.0
2018-Jan-11 05:00N 29°37' W 095°01'0 0.0
2018-Jan-11 04:30N 29°37' W 095°02'0 0.0
2018-Jan-11 04:00N 29°37' W 095°02'0 0.0
2018-Jan-11 03:30N 29°37' W 095°01'  
Track history (hours):
 
Tides and Currents Weather Stations Pressure Air Temp Water Temp Dewpoint Dewpoint Depression Visibility Wind Speed Wind Dir Waves Ship Positions

Rick Pumphrey

Owner: Blessey Enterprises, Inc., Harahan, LA. More information available from US FCC via Universal Licensing System and Coast Guard Vessel Documentation Center.

Last reported at 2018-Jan-21 03:00 UTC. Time now 2018-Jan-21 03:08 UTC.
Position N 29°36' W 095°01'.

; draft 2.4 m.

Type: Tug. MMSI: 367495480.

Date/timePositionNaut miles runAvg speedWind from/ knotsBaromVisibWave heightAir tempDewpointWater temp
2018-Jan-21 03:00N 29°36' W 095°01'0 0.0
2018-Jan-21 02:30N 29°36' W 095°01'0 0.0
2018-Jan-21 02:00N 29°36' W 095°01'0 0.0
2018-Jan-21 01:30N 29°36' W 095°01'0 0.0
2018-Jan-21 01:00N 29°36' W 095°01'0 0.0
2018-Jan-21 00:30N 29°36' W 095°01'0 0.0
2018-Jan-21 00:00N 29°36' W 095°01'0 0.0
2018-Jan-20 23:30N 29°36' W 095°01'0 0.0
2018-Jan-20 22:59N 29°36' W 095°01'0 0.0
2018-Jan-20 22:30N 29°36' W 095°01'0 0.0
2018-Jan-20 22:00N 29°36' W 095°01'0 0.0
2018-Jan-20 21:30N 29°36' W 095°01'0 0.0
2018-Jan-20 20:59N 29°36' W 095°01'0 0.0
2018-Jan-20 20:30N 29°36' W 095°01'0 0.1
2018-Jan-20 20:00N 29°36' W 095°01'0 0.5
2018-Jan-20 19:30N 29°37' W 095°01'2 4.3
2018-Jan-20 19:00N 29°37' W 094°59'3 5.1
2018-Jan-20 18:30N 29°39' W 094°58'4 7.5
2018-Jan-20 17:59N 29°42' W 095°01'2 0.1
2018-Jan-19 14:13N 29°44' W 095°03'4 0.2
2018-Jan-18 15:55N 29°42' W 094°60'3 6.2
2018-Jan-18 15:30N 29°39' W 094°58'3 5.1
2018-Jan-18 15:00N 29°37' W 094°58'3 5.5
2018-Jan-18 14:31N 29°37' W 095°01'0 0.2
2018-Jan-18 14:00N 29°37' W 095°02'0 0.0
2018-Jan-18 13:30N 29°37' W 095°02'0 0.0
2018-Jan-18 13:00N 29°37' W 095°02'0 0.0
2018-Jan-18 12:30N 29°37' W 095°02'0 0.0
2018-Jan-18 12:00N 29°37' W 095°01'0 0.0
2018-Jan-18 11:30N 29°37' W 095°02'0 0.0
2018-Jan-18 11:00N 29°37' W 095°02'0 0.0
2018-Jan-18 10:30N 29°37' W 095°02'0 0.0
2018-Jan-18 10:00N 29°37' W 095°02'0 0.0
2018-Jan-18 09:30N 29°37' W 095°02'0 0.0
2018-Jan-18 09:00N 29°37' W 095°02'0 0.0
2018-Jan-18 08:30N 29°37' W 095°02'0 0.0
2018-Jan-18 08:00N 29°37' W 095°02'0 0.0
2018-Jan-18 07:30N 29°37' W 095°02'0 0.0
2018-Jan-18 07:00N 29°37' W 095°02'0 0.0
2018-Jan-18 06:30N 29°37' W 095°02'0 0.0
2018-Jan-18 06:00N 29°37' W 095°01'0 0.0
2018-Jan-18 05:30N 29°37' W 095°02'0 0.0
2018-Jan-18 05:00N 29°37' W 095°01'0 0.0
2018-Jan-18 04:29N 29°37' W 095°01'0 0.0
2018-Jan-18 04:00N 29°37' W 095°02'2 3.4
2018-Jan-18 03:30N 29°37' W 094°60'2 4.5
2018-Jan-18 03:00N 29°39' W 094°58'4 7.2
2018-Jan-18 02:30N 29°42' W 095°00'3 6.1
2018-Jan-18 01:59N 29°44' W 095°03'  
2018-Jan-12 15:00N 29°37' W 094°58'3 5.8
2018-Jan-12 14:30N 29°37' W 095°01'0 0.0
2018-Jan-12 14:00N 29°37' W 095°01'0 0.0
2018-Jan-12 13:30N 29°37' W 095°01'0 0.0
2018-Jan-12 13:00N 29°37' W 095°01'0 0.0
2018-Jan-12 12:30N 29°37' W 095°01'0 0.0
2018-Jan-12 12:00N 29°37' W 095°01'0 0.0
2018-Jan-12 11:30N 29°37' W 095°01'0 0.0
2018-Jan-12 10:58N 29°37' W 095°01'0 0.0
2018-Jan-12 10:30N 29°37' W 095°01'0 0.0
2018-Jan-12 10:00N 29°37' W 095°01'0 0.0
2018-Jan-12 09:27N 29°37' W 095°01'0 0.0
2018-Jan-12 09:00N 29°37' W 095°01'0 0.0
2018-Jan-12 08:26N 29°37' W 095°01'0 0.0
2018-Jan-12 08:00N 29°37' W 095°01'0 0.0
2018-Jan-12 07:29N 29°37' W 095°01'0 0.0
2018-Jan-12 07:00N 29°37' W 095°01'0 0.0
2018-Jan-12 06:30N 29°37' W 095°01'0 0.0
2018-Jan-12 06:00N 29°37' W 095°01'0 0.0
2018-Jan-12 05:30N 29°37' W 095°01'0 0.0
2018-Jan-12 04:58N 29°37' W 095°01'0 0.0
2018-Jan-12 04:30N 29°37' W 095°01'0 0.0
2018-Jan-12 04:00N 29°37' W 095°01'0 0.0
2018-Jan-12 03:25N 29°37' W 095°01'0 0.0
2018-Jan-12 02:57N 29°37' W 095°01'0 0.0
2018-Jan-12 02:27N 29°37' W 095°01'0 0.0
2018-Jan-12 01:58N 29°37' W 095°01'0 0.0
2018-Jan-12 01:29N 29°37' W 095°01'0 0.0
2018-Jan-12 00:59N 29°37' W 095°01'0 0.0
2018-Jan-12 00:30N 29°37' W 095°01'0 0.0
2018-Jan-12 00:00N 29°37' W 095°01'0 0.0
2018-Jan-11 23:28N 29°37' W 095°01'0 0.0
2018-Jan-11 23:00N 29°37' W 095°01'0 0.0
2018-Jan-11 22:30N 29°37' W 095°01'0 0.0
2018-Jan-11 22:00N 29°37' W 095°01'0 0.0
2018-Jan-11 21:30N 29°37' W 095°01'2 3.3
2018-Jan-11 21:00N 29°37' W 094°60'2 4.3
2018-Jan-11 20:30N 29°39' W 094°58'4 7.2
2018-Jan-11 20:00N 29°42' W 094°60'3 6.6
2018-Jan-11 19:30N 29°44' W 095°03'2 0.2
2018-Jan-11 10:37N 29°42' W 095°01'2 6.8
2018-Jan-11 10:15N 29°41' W 094°59'2 7.0
2018-Jan-11 10:00N 29°39' W 094°58'3 5.1
2018-Jan-11 09:30N 29°37' W 094°59'2 3.7
2018-Jan-11 09:00N 29°37' W 095°02'0 0.0
2018-Jan-11 08:30N 29°37' W 095°02'0 0.0
2018-Jan-11 08:00N 29°37' W 095°02'0 0.0
2018-Jan-11 07:30N 29°37' W 095°02'0 0.0
2018-Jan-11 07:00N 29°37' W 095°02'0 0.0
2018-Jan-11 06:30N 29°37' W 095°02'0 0.0
2018-Jan-11 06:00N 29°37' W 095°01'0 0.0
2018-Jan-11 05:30N 29°37' W 095°01'0 0.0
2018-Jan-11 05:00N 29°37' W 095°01'0 0.0
2018-Jan-11 04:30N 29°37' W 095°02'0 0.0
2018-Jan-11 04:00N 29°37' W 095°02'0 0.0
2018-Jan-11 03:30N 29°37' W 095°01'  

Dump ship's entire track history